sensor_id;sensor_type;location;lat;lon;timestamp;pressure;altitude;pressure_sealevel;temperature;humidity
71149;BME280;59072;42.144;25.200;2022-08-19T00:01:50;99557.97;;;25.76;53.29
71149;BME280;59072;42.144;25.200;2022-08-19T00:04:18;99544.41;;;25.37;54.01
71149;BME280;59072;42.144;25.200;2022-08-19T00:06:44;99556.59;;;25.10;55.52
71149;BME280;59072;42.144;25.200;2022-08-19T00:09:11;99538.53;;;24.88;56.22
71149;BME280;59072;42.144;25.200;2022-08-19T00:11:38;99564.97;;;25.05;55.74
71149;BME280;59072;42.144;25.200;2022-08-19T00:14:08;99551.81;;;25.37;55.23
71149;BME280;59072;42.144;25.200;2022-08-19T00:16:36;99537.44;;;25.49;54.62
71149;BME280;59072;42.144;25.200;2022-08-19T00:19:02;99563.25;;;25.81;54.24
71149;BME280;59072;42.144;25.200;2022-08-19T00:21:28;99540.84;;;26.09;52.72
71149;BME280;59072;42.144;25.200;2022-08-19T00:23:55;99557.56;;;26.28;52.19
71149;BME280;59072;42.144;25.200;2022-08-19T00:26:24;99560.31;;;26.07;52.78
71149;BME280;59072;42.144;25.200;2022-08-19T00:28:50;99561.56;;;25.67;53.85
71149;BME280;59072;42.144;25.200;2022-08-19T00:31:16;99570.91;;;25.66;54.28
71149;BME280;59072;42.144;25.200;2022-08-19T00:33:42;99568.72;;;26.02;53.10
71149;BME280;59072;42.144;25.200;2022-08-19T00:36:09;99562.66;;;25.45;55.26
71149;BME280;59072;42.144;25.200;2022-08-19T00:38:36;99553.41;;;25.38;55.71
71149;BME280;59072;42.144;25.200;2022-08-19T00:41:03;99536.78;;;25.52;54.68
71149;BME280;59072;42.144;25.200;2022-08-19T00:43:28;99545.97;;;25.17;55.17
71149;BME280;59072;42.144;25.200;2022-08-19T00:45:54;99555.31;;;25.67;54.65
71149;BME280;59072;42.144;25.200;2022-08-19T00:48:20;99528.06;;;25.79;53.57
71149;BME280;59072;42.144;25.200;2022-08-19T00:50:48;99549.38;;;25.86;54.07
71149;BME280;59072;42.144;25.200;2022-08-19T00:53:16;99524.19;;;25.59;53.92
71149;BME280;59072;42.144;25.200;2022-08-19T00:55:50;99549.16;;;25.19;55.64
71149;BME280;59072;42.144;25.200;2022-08-19T00:58:19;99537.00;;;25.67;54.29
71149;BME280;59072;42.144;25.200;2022-08-19T01:00:46;99541.75;;;25.29;55.64
71149;BME280;59072;42.144;25.200;2022-08-19T01:03:17;99543.31;;;25.59;55.04
71149;BME280;59072;42.144;25.200;2022-08-19T01:05:44;99543.47;;;25.33;54.86
71149;BME280;59072;42.144;25.200;2022-08-19T01:08:10;99544.50;;;24.81;55.38
71149;BME280;59072;42.144;25.200;2022-08-19T01:10:40;99556.28;;;24.56;56.63
71149;BME280;59072;42.144;25.200;2022-08-19T01:13:07;99544.50;;;24.81;56.17
71149;BME280;59072;42.144;25.200;2022-08-19T01:15:36;99547.44;;;25.06;56.16
71149;BME280;59072;42.144;25.200;2022-08-19T01:18:06;99551.81;;;24.42;56.22
71149;BME280;59072;42.144;25.200;2022-08-19T01:20:33;99534.13;;;24.66;56.83
71149;BME280;59072;42.144;25.200;2022-08-19T01:22:59;99547.28;;;25.41;54.74
71149;BME280;59072;42.144;25.200;2022-08-19T01:25:31;99535.84;;;25.18;55.04
71149;BME280;59072;42.144;25.200;2022-08-19T01:27:58;99531.38;;;25.43;54.20
71149;BME280;59072;42.144;25.200;2022-08-19T01:30:33;99538.13;;;25.66;53.62
71149;BME280;59072;42.144;25.200;2022-08-19T01:32:59;99534.59;;;25.06;54.60
71149;BME280;59072;42.144;25.200;2022-08-19T01:35:29;99522.16;;;24.41;56.18
71149;BME280;59072;42.144;25.200;2022-08-19T01:38:02;99558.91;;;24.91;55.92
71149;BME280;59072;42.144;25.200;2022-08-19T01:40:31;99558.16;;;25.20;54.67
71149;BME280;59072;42.144;25.200;2022-08-19T01:42:58;99560.38;;;25.26;54.56
71149;BME280;59072;42.144;25.200;2022-08-19T01:45:26;99549.03;;;24.77;56.02
71149;BME280;59072;42.144;25.200;2022-08-19T01:47:52;99558.66;;;25.22;54.40
71149;BME280;59072;42.144;25.200;2022-08-19T01:50:18;99542.72;;;24.85;55.96
71149;BME280;59072;42.144;25.200;2022-08-19T01:52:44;99549.50;;;25.48;53.75
71149;BME280;59072;42.144;25.200;2022-08-19T01:55:17;99559.38;;;24.93;55.23
71149;BME280;59072;42.144;25.200;2022-08-19T01:57:47;99552.28;;;24.44;56.86
71149;BME280;59072;42.144;25.200;2022-08-19T02:00:16;99559.97;;;25.07;55.65
71149;BME280;59072;42.144;25.200;2022-08-19T02:02:42;99545.97;;;24.79;55.80
71149;BME280;59072;42.144;25.200;2022-08-19T02:05:09;99564.78;;;24.45;57.73
71149;BME280;59072;42.144;25.200;2022-08-19T02:07:36;99552.66;;;24.17;58.19
71149;BME280;59072;42.144;25.200;2022-08-19T02:10:10;99571.56;;;24.04;58.21
71149;BME280;59072;42.144;25.200;2022-08-19T02:12:36;99553.13;;;23.75;58.27
71149;BME280;59072;42.144;25.200;2022-08-19T02:15:03;99569.00;;;24.17;57.87
71149;BME280;59072;42.144;25.200;2022-08-19T02:17:29;99571.09;;;24.11;58.60
71149;BME280;59072;42.144;25.200;2022-08-19T02:19:55;99557.41;;;24.37;57.50
71149;BME280;59072;42.144;25.200;2022-08-19T02:22:22;99590.63;;;24.04;58.83
71149;BME280;59072;42.144;25.200;2022-08-19T02:24:48;99586.47;;;24.51;57.06
71149;BME280;59072;42.144;25.200;2022-08-19T02:27:14;99589.25;;;24.89;56.21
71149;BME280;59072;42.144;25.200;2022-08-19T02:29:40;99579.22;;;24.37;57.24
71149;BME280;59072;42.144;25.200;2022-08-19T02:32:07;99566.75;;;24.36;56.86
71149;BME280;59072;42.144;25.200;2022-08-19T02:34:34;99582.19;;;24.88;56.07
71149;BME280;59072;42.144;25.200;2022-08-19T02:37:00;99564.97;;;24.23;55.50
71149;BME280;59072;42.144;25.200;2022-08-19T02:39:25;99571.88;;;23.77;57.58
71149;BME280;59072;42.144;25.200;2022-08-19T02:41:51;99573.00;;;24.54;55.78
71149;BME280;59072;42.144;25.200;2022-08-19T02:44:17;99584.44;;;24.86;54.63
71149;BME280;59072;42.144;25.200;2022-08-19T02:46:45;99594.94;;;24.23;53.03
71149;BME280;59072;42.144;25.200;2022-08-19T02:49:12;99595.44;;;23.90;56.26
71149;BME280;59072;42.144;25.200;2022-08-19T02:51:41;99584.84;;;24.50;55.63
71149;BME280;59072;42.144;25.200;2022-08-19T02:54:08;99604.72;;;23.80;56.83
71149;BME280;59072;42.144;25.200;2022-08-19T02:56:35;99608.75;;;23.34;59.27
71149;BME280;59072;42.144;25.200;2022-08-19T02:59:02;99602.22;;;23.44;58.43
71149;BME280;59072;42.144;25.200;2022-08-19T03:01:30;99599.78;;;24.26;57.02
71149;BME280;59072;42.144;25.200;2022-08-19T03:03:58;99605.34;;;24.47;56.45
71149;BME280;59072;42.144;25.200;2022-08-19T03:06:25;99604.25;;;24.04;55.95
71149;BME280;59072;42.144;25.200;2022-08-19T03:08:52;99622.97;;;24.76;55.74
71149;BME280;59072;42.144;25.200;2022-08-19T03:11:21;99622.19;;;24.14;54.91
71149;BME280;59072;42.144;25.200;2022-08-19T03:13:48;99605.75;;;23.53;56.13
71149;BME280;59072;42.144;25.200;2022-08-19T03:16:17;99630.03;;;23.90;57.40
71149;BME280;59072;42.144;25.200;2022-08-19T03:18:43;99600.97;;;23.50;58.01
71149;BME280;59072;42.144;25.200;2022-08-19T03:21:10;99637.41;;;23.40;58.24
71149;BME280;59072;42.144;25.200;2022-08-19T03:23:39;99620.50;;;23.12;59.41
71149;BME280;59072;42.144;25.200;2022-08-19T03:26:05;99626.47;;;22.92;60.15
71149;BME280;59072;42.144;25.200;2022-08-19T03:28:31;99645.88;;;22.31;61.85
71149;BME280;59072;42.144;25.200;2022-08-19T03:31:04;99617.72;;;21.77;63.50
71149;BME280;59072;42.144;25.200;2022-08-19T03:33:31;99618.88;;;21.62;64.14
71149;BME280;59072;42.144;25.200;2022-08-19T03:36:12;99633.44;;;21.52;64.81
71149;BME280;59072;42.144;25.200;2022-08-19T03:38:43;99650.47;;;21.39;67.73
71149;BME280;59072;42.144;25.200;2022-08-19T03:41:12;99638.44;;;21.31;67.83
71149;BME280;59072;42.144;25.200;2022-08-19T03:43:39;99647.25;;;21.37;67.72
71149;BME280;59072;42.144;25.200;2022-08-19T03:46:10;99648.16;;;21.18;68.18
71149;BME280;59072;42.144;25.200;2022-08-19T03:48:37;99644.66;;;21.32;68.02
71149;BME280;59072;42.144;25.200;2022-08-19T03:51:03;99624.94;;;20.98;68.68
71149;BME280;59072;42.144;25.200;2022-08-19T03:53:31;99643.22;;;21.20;68.26
71149;BME280;59072;42.144;25.200;2022-08-19T03:55:57;99653.88;;;22.00;65.54
71149;BME280;59072;42.144;25.200;2022-08-19T03:58:26;99646.88;;;22.35;64.23
71149;BME280;59072;42.144;25.200;2022-08-19T04:00:55;99660.72;;;22.48;63.52
71149;BME280;59072;42.144;25.200;2022-08-19T04:03:21;99654.69;;;23.36;60.32
71149;BME280;59072;42.144;25.200;2022-08-19T04:05:46;99648.69;;;22.94;61.51
71149;BME280;59072;42.144;25.200;2022-08-19T04:08:13;99634.34;;;22.71;62.21
71149;BME280;59072;42.144;25.200;2022-08-19T04:10:38;99650.50;;;23.30;60.36
71149;BME280;59072;42.144;25.200;2022-08-19T04:13:05;99654.88;;;23.08;61.77
71149;BME280;59072;42.144;25.200;2022-08-19T04:15:32;99646.75;;;23.48;59.89
71149;BME280;59072;42.144;25.200;2022-08-19T04:18:04;99645.72;;;23.84;58.45
71149;BME280;59072;42.144;25.200;2022-08-19T04:20:31;99650.44;;;23.61;58.62
71149;BME280;59072;42.144;25.200;2022-08-19T04:22:56;99660.84;;;23.50;59.18
71149;BME280;59072;42.144;25.200;2022-08-19T04:25:22;99639.91;;;23.19;59.95
71149;BME280;59072;42.144;25.200;2022-08-19T04:27:47;99642.41;;;23.56;59.49
71149;BME280;59072;42.144;25.200;2022-08-19T04:30:14;99645.81;;;23.61;58.85
71149;BME280;59072;42.144;25.200;2022-08-19T04:32:40;99659.38;;;24.01;58.12
71149;BME280;59072;42.144;25.200;2022-08-19T04:35:08;99644.81;;;24.23;56.77
71149;BME280;59072;42.144;25.200;2022-08-19T04:37:34;99655.84;;;24.27;56.82
71149;BME280;59072;42.144;25.200;2022-08-19T04:39:59;99646.41;;;24.16;57.32
71149;BME280;59072;42.144;25.200;2022-08-19T04:42:44;99652.50;;;24.39;56.40
71149;BME280;59072;42.144;25.200;2022-08-19T04:45:12;99664.84;;;24.54;56.14
71149;BME280;59072;42.144;25.200;2022-08-19T04:47:40;99649.38;;;24.93;55.46
71149;BME280;59072;42.144;25.200;2022-08-19T04:50:07;99638.16;;;25.03;55.03
71149;BME280;59072;42.144;25.200;2022-08-19T04:52:33;99635.06;;;25.22;54.45
71149;BME280;59072;42.144;25.200;2022-08-19T04:54:59;99641.00;;;25.15;54.57
71149;BME280;59072;42.144;25.200;2022-08-19T04:57:25;99630.72;;;25.12;54.56
71149;BME280;59072;42.144;25.200;2022-08-19T04:59:55;99640.78;;;25.29;54.25
71149;BME280;59072;42.144;25.200;2022-08-19T05:02:21;99651.72;;;25.20;55.28
71149;BME280;59072;42.144;25.200;2022-08-19T05:04:55;99661.56;;;25.04;54.99
71149;BME280;59072;42.144;25.200;2022-08-19T05:07:21;99653.13;;;25.35;54.50
71149;BME280;59072;42.144;25.200;2022-08-19T05:09:46;99654.84;;;25.49;54.32
71149;BME280;59072;42.144;25.200;2022-08-19T05:12:12;99658.66;;;25.09;55.40
71149;BME280;59072;42.144;25.200;2022-08-19T05:14:37;99653.56;;;24.99;55.86
71149;BME280;59072;42.144;25.200;2022-08-19T05:17:03;99660.00;;;24.85;56.63
71149;BME280;59072;42.144;25.200;2022-08-19T05:19:28;99636.06;;;25.00;56.11
71149;BME280;59072;42.144;25.200;2022-08-19T05:22:12;99643.25;;;25.22;56.16
71149;BME280;59072;42.144;25.200;2022-08-19T05:24:56;99664.22;;;25.30;56.29
71149;BME280;59072;42.144;25.200;2022-08-19T05:27:21;99651.34;;;25.39;55.37
71149;BME280;59072;42.144;25.200;2022-08-19T05:29:47;99667.13;;;25.63;55.24
71149;BME280;59072;42.144;25.200;2022-08-19T05:32:12;99670.66;;;25.64;55.53
71149;BME280;59072;42.144;25.200;2022-08-19T05:34:38;99676.25;;;25.67;55.71
71149;BME280;59072;42.144;25.200;2022-08-19T05:37:04;99647.47;;;25.70;55.46
71149;BME280;59072;42.144;25.200;2022-08-19T05:39:34;99652.91;;;25.79;55.91
71149;BME280;59072;42.144;25.200;2022-08-19T05:42:06;99671.47;;;25.94;55.37
71149;BME280;59072;42.144;25.200;2022-08-19T05:44:34;99663.09;;;25.99;55.21
71149;BME280;59072;42.144;25.200;2022-08-19T05:47:03;99654.81;;;26.08;54.97
71149;BME280;59072;42.144;25.200;2022-08-19T05:49:31;99663.75;;;26.38;54.48
71149;BME280;59072;42.144;25.200;2022-08-19T05:51:57;99665.63;;;26.46;54.36
71149;BME280;59072;42.144;25.200;2022-08-19T05:54:23;99665.75;;;26.29;55.20
71149;BME280;59072;42.144;25.200;2022-08-19T05:56:51;99653.16;;;26.16;55.88
71149;BME280;59072;42.144;25.200;2022-08-19T05:59:18;99674.28;;;26.49;55.27
71149;BME280;59072;42.144;25.200;2022-08-19T06:01:45;99658.69;;;26.28;55.12
71149;BME280;59072;42.144;25.200;2022-08-19T06:04:12;99676.75;;;26.41;55.00
71149;BME280;59072;42.144;25.200;2022-08-19T06:06:40;99690.13;;;26.55;54.78
71149;BME280;59072;42.144;25.200;2022-08-19T06:09:07;99668.25;;;26.76;54.21
71149;BME280;59072;42.144;25.200;2022-08-19T06:14:04;99676.06;;;26.99;53.34
71149;BME280;59072;42.144;25.200;2022-08-19T06:16:30;99693.38;;;27.36;53.84
71149;BME280;59072;42.144;25.200;2022-08-19T06:19:00;99690.88;;;27.43;53.86
71149;BME280;59072;42.144;25.200;2022-08-19T06:21:28;99668.38;;;27.25;52.38
71149;BME280;59072;42.144;25.200;2022-08-19T06:23:55;99688.47;;;27.54;52.74
71149;BME280;59072;42.144;25.200;2022-08-19T06:26:21;99680.28;;;27.67;52.47
71149;BME280;59072;42.144;25.200;2022-08-19T06:28:48;99692.81;;;27.80;52.71
71149;BME280;59072;42.144;25.200;2022-08-19T06:31:19;99681.19;;;27.95;51.67
71149;BME280;59072;42.144;25.200;2022-08-19T06:33:46;99689.41;;;28.08;51.88
71149;BME280;59072;42.144;25.200;2022-08-19T06:36:30;99679.75;;;28.26;50.65
71149;BME280;59072;42.144;25.200;2022-08-19T06:39:03;99699.34;;;28.53;50.23
71149;BME280;59072;42.144;25.200;2022-08-19T06:41:30;99702.28;;;28.60;49.88
71149;BME280;59072;42.144;25.200;2022-08-19T06:43:56;99689.22;;;28.69;48.89
71149;BME280;59072;42.144;25.200;2022-08-19T06:46:22;99706.56;;;29.01;49.23
71149;BME280;59072;42.144;25.200;2022-08-19T06:48:48;99700.31;;;28.89;49.11
71149;BME280;59072;42.144;25.200;2022-08-19T06:51:16;99689.78;;;28.91;48.91
71149;BME280;59072;42.144;25.200;2022-08-19T06:53:46;99685.94;;;29.08;49.68
71149;BME280;59072;42.144;25.200;2022-08-19T06:56:18;99684.03;;;29.24;49.36
71149;BME280;59072;42.144;25.200;2022-08-19T06:58:44;99689.50;;;29.40;50.17
71149;BME280;59072;42.144;25.200;2022-08-19T07:01:09;99690.22;;;29.37;49.96
71149;BME280;59072;42.144;25.200;2022-08-19T07:03:37;99688.94;;;29.50;48.52
71149;BME280;59072;42.144;25.200;2022-08-19T07:06:09;99696.59;;;29.73;47.07
71149;BME280;59072;42.144;25.200;2022-08-19T07:08:36;99700.28;;;29.96;46.77
71149;BME280;59072;42.144;25.200;2022-08-19T07:11:05;99689.16;;;30.09;45.84
71149;BME280;59072;42.144;25.200;2022-08-19T07:13:32;99694.59;;;30.24;46.00
71149;BME280;59072;42.144;25.200;2022-08-19T07:16:13;99695.63;;;30.36;45.08
71149;BME280;59072;42.144;25.200;2022-08-19T07:18:40;99675.59;;;30.55;45.74
71149;BME280;59072;42.144;25.200;2022-08-19T07:21:11;99689.06;;;30.60;44.74
71149;BME280;59072;42.144;25.200;2022-08-19T07:23:37;99688.19;;;30.56;43.47
71149;BME280;59072;42.144;25.200;2022-08-19T07:26:17;99693.97;;;30.70;41.03
71149;BME280;59072;42.144;25.200;2022-08-19T07:28:45;99680.03;;;30.82;42.79
71149;BME280;59072;42.144;25.200;2022-08-19T07:31:13;99687.47;;;31.01;43.12
71149;BME280;59072;42.144;25.200;2022-08-19T07:33:40;99685.34;;;30.91;42.38
71149;BME280;59072;42.144;25.200;2022-08-19T07:36:09;99659.84;;;30.94;41.72
71149;BME280;59072;42.144;25.200;2022-08-19T07:38:42;99675.81;;;31.08;38.29
71149;BME280;59072;42.144;25.200;2022-08-19T07:41:11;99663.72;;;30.93;40.45
71149;BME280;59072;42.144;25.200;2022-08-19T07:43:38;99666.50;;;31.16;40.12
71149;BME280;59072;42.144;25.200;2022-08-19T07:46:04;99670.34;;;31.35;40.25
71149;BME280;59072;42.144;25.200;2022-08-19T07:48:29;99677.03;;;31.34;39.49
71149;BME280;59072;42.144;25.200;2022-08-19T07:51:00;99684.13;;;31.35;39.66
71149;BME280;59072;42.144;25.200;2022-08-19T07:53:31;99666.09;;;31.14;40.08
71149;BME280;59072;42.144;25.200;2022-08-19T07:55:58;99660.75;;;31.25;39.96
71149;BME280;59072;42.144;25.200;2022-08-19T07:58:27;99667.03;;;31.49;39.29
71149;BME280;59072;42.144;25.200;2022-08-19T08:00:53;99662.19;;;31.65;38.46
71149;BME280;59072;42.144;25.200;2022-08-19T08:03:20;99654.16;;;31.56;38.71
71149;BME280;59072;42.144;25.200;2022-08-19T08:06:07;99664.47;;;31.59;38.73
71149;BME280;59072;42.144;25.200;2022-08-19T08:08:50;99665.25;;;31.87;39.13
71149;BME280;59072;42.144;25.200;2022-08-19T08:11:35;99656.03;;;32.02;37.37
71149;BME280;59072;42.144;25.200;2022-08-19T08:14:01;99680.28;;;32.19;36.69
71149;BME280;59072;42.144;25.200;2022-08-19T08:16:27;99681.09;;;31.93;37.48
71149;BME280;59072;42.144;25.200;2022-08-19T08:18:55;99669.19;;;32.16;37.98
71149;BME280;59072;42.144;25.200;2022-08-19T08:21:20;99662.19;;;32.22;38.09
71149;BME280;59072;42.144;25.200;2022-08-19T08:23:46;99673.25;;;32.56;36.20
71149;BME280;59072;42.144;25.200;2022-08-19T08:26:11;99677.19;;;32.55;36.43
71149;BME280;59072;42.144;25.200;2022-08-19T08:28:38;99661.47;;;32.59;36.59
71149;BME280;59072;42.144;25.200;2022-08-19T08:31:03;99667.84;;;32.67;36.96
71149;BME280;59072;42.144;25.200;2022-08-19T08:33:29;99668.09;;;32.88;37.46
71149;BME280;59072;42.144;25.200;2022-08-19T08:35:55;99662.59;;;32.92;37.22
71149;BME280;59072;42.144;25.200;2022-08-19T08:38:21;99659.31;;;33.16;35.25
71149;BME280;59072;42.144;25.200;2022-08-19T08:40:50;99666.13;;;33.33;36.23
71149;BME280;59072;42.144;25.200;2022-08-19T08:45:56;99669.44;;;33.53;34.73
71149;BME280;59072;42.144;25.200;2022-08-19T08:48:30;99664.72;;;33.54;35.02
71149;BME280;59072;42.144;25.200;2022-08-19T08:50:58;99657.81;;;33.30;35.28
71149;BME280;59072;42.144;25.200;2022-08-19T08:53:27;99648.66;;;33.18;34.65
71149;BME280;59072;42.144;25.200;2022-08-19T08:55:52;99669.34;;;33.39;34.55
71149;BME280;59072;42.144;25.200;2022-08-19T08:58:29;99658.41;;;33.53;34.05
71149;BME280;59072;42.144;25.200;2022-08-19T09:00:56;99651.13;;;33.86;33.26
71149;BME280;59072;42.144;25.200;2022-08-19T09:03:24;99655.09;;;33.96;32.48
71149;BME280;59072;42.144;25.200;2022-08-19T09:11:08;99647.44;;;34.52;32.70
71149;BME280;59072;42.144;25.200;2022-08-19T09:16:19;99646.94;;;34.17;31.63
71149;BME280;59072;42.144;25.200;2022-08-19T09:18:51;99634.34;;;34.31;33.06
71149;BME280;59072;42.144;25.200;2022-08-19T09:21:20;99626.03;;;34.27;32.70
71149;BME280;59072;42.144;25.200;2022-08-19T09:23:46;99622.13;;;34.57;32.66
71149;BME280;59072;42.144;25.200;2022-08-19T09:26:17;99627.34;;;34.87;31.73
71149;BME280;59072;42.144;25.200;2022-08-19T09:28:45;99620.22;;;34.90;31.32
71149;BME280;59072;42.144;25.200;2022-08-19T09:31:12;99620.16;;;34.50;30.27
71149;BME280;59072;42.144;25.200;2022-08-19T09:33:38;99614.28;;;34.70;30.63
71149;BME280;59072;42.144;25.200;2022-08-19T09:36:07;99617.06;;;34.95;31.85
71149;BME280;59072;42.144;25.200;2022-08-19T09:38:34;99624.97;;;34.93;31.03
71149;BME280;59072;42.144;25.200;2022-08-19T09:41:12;99613.91;;;34.78;30.84
71149;BME280;59072;42.144;25.200;2022-08-19T09:43:40;99612.31;;;34.81;29.92
71149;BME280;59072;42.144;25.200;2022-08-19T09:46:06;99613.09;;;34.96;30.20
71149;BME280;59072;42.144;25.200;2022-08-19T09:48:32;99599.66;;;34.94;31.49
71149;BME280;59072;42.144;25.200;2022-08-19T09:51:22;99600.41;;;35.52;29.44
71149;BME280;59072;42.144;25.200;2022-08-19T09:53:49;99607.44;;;35.96;28.90
71149;BME280;59072;42.144;25.200;2022-08-19T09:56:18;99601.31;;;36.37;27.93
71149;BME280;59072;42.144;25.200;2022-08-19T09:58:43;99603.09;;;36.69;28.03
71149;BME280;59072;42.144;25.200;2022-08-19T10:01:19;99587.38;;;36.41;28.28
71149;BME280;59072;42.144;25.200;2022-08-19T10:03:48;99598.09;;;36.43;27.03
71149;BME280;59072;42.144;25.200;2022-08-19T10:06:15;99589.34;;;36.44;28.83
71149;BME280;59072;42.144;25.200;2022-08-19T10:08:41;99586.75;;;36.19;27.10
71149;BME280;59072;42.144;25.200;2022-08-19T10:11:08;99575.56;;;36.33;27.98
71149;BME280;59072;42.144;25.200;2022-08-19T10:13:34;99582.09;;;36.68;26.98
71149;BME280;59072;42.144;25.200;2022-08-19T10:16:06;99566.13;;;36.13;28.29
71149;BME280;59072;42.144;25.200;2022-08-19T10:18:32;99574.81;;;36.22;28.67
71149;BME280;59072;42.144;25.200;2022-08-19T10:21:26;99584.19;;;36.43;27.43
71149;BME280;59072;42.144;25.200;2022-08-19T10:23:54;99566.25;;;36.58;28.91
71149;BME280;59072;42.144;25.200;2022-08-19T10:26:32;99567.84;;;37.08;25.94
71149;BME280;59072;42.144;25.200;2022-08-19T10:28:58;99556.31;;;37.13;27.11
71149;BME280;59072;42.144;25.200;2022-08-19T10:31:27;99555.09;;;37.17;25.04
71149;BME280;59072;42.144;25.200;2022-08-19T10:33:53;99550.28;;;36.76;26.94
71149;BME280;59072;42.144;25.200;2022-08-19T10:36:27;99563.88;;;37.09;25.24
71149;BME280;59072;42.144;25.200;2022-08-19T10:38:56;99558.09;;;37.34;26.52
71149;BME280;59072;42.144;25.200;2022-08-19T10:41:26;99556.25;;;37.54;25.97
71149;BME280;59072;42.144;25.200;2022-08-19T10:43:53;99564.69;;;37.47;24.55
71149;BME280;59072;42.144;25.200;2022-08-19T10:46:21;99552.16;;;37.32;24.84
71149;BME280;59072;42.144;25.200;2022-08-19T10:48:47;99565.13;;;37.46;24.34
71149;BME280;59072;42.144;25.200;2022-08-19T10:51:12;99549.31;;;36.42;25.41
71149;BME280;59072;42.144;25.200;2022-08-19T10:53:57;99555.47;;;36.71;26.32
71149;BME280;59072;42.144;25.200;2022-08-19T10:56:24;99540.13;;;37.00;25.52
71149;BME280;59072;42.144;25.200;2022-08-19T10:59:08;99549.97;;;37.50;25.23
71149;BME280;59072;42.144;25.200;2022-08-19T11:01:34;99550.75;;;37.85;24.46
71149;BME280;59072;42.144;25.200;2022-08-19T11:04:04;99548.03;;;37.78;24.13
71149;BME280;59072;42.144;25.200;2022-08-19T11:06:33;99532.59;;;38.04;26.38
71149;BME280;59072;42.144;25.200;2022-08-19T11:08:59;99531.53;;;37.94;24.91
71149;BME280;59072;42.144;25.200;2022-08-19T11:11:26;99536.28;;;37.67;25.30
71149;BME280;59072;42.144;25.200;2022-08-19T11:13:52;99532.59;;;38.08;23.42
71149;BME280;59072;42.144;25.200;2022-08-19T11:16:27;99527.53;;;38.26;23.24
71149;BME280;59072;42.144;25.200;2022-08-19T11:18:57;99516.84;;;38.48;23.38
71149;BME280;59072;42.144;25.200;2022-08-19T11:23:55;99517.03;;;38.37;24.12
71149;BME280;59072;42.144;25.200;2022-08-19T11:26:22;99508.13;;;38.46;24.09
71149;BME280;59072;42.144;25.200;2022-08-19T11:28:48;99507.59;;;38.31;24.21
71149;BME280;59072;42.144;25.200;2022-08-19T11:31:21;99512.88;;;38.22;23.81
71149;BME280;59072;42.144;25.200;2022-08-19T11:33:47;99520.41;;;38.25;24.07
71149;BME280;59072;42.144;25.200;2022-08-19T11:36:16;99495.94;;;38.13;23.80
71149;BME280;59072;42.144;25.200;2022-08-19T11:38:43;99500.78;;;38.32;23.36
71149;BME280;59072;42.144;25.200;2022-08-19T11:41:08;99506.91;;;38.24;24.31
71149;BME280;59072;42.144;25.200;2022-08-19T11:43:35;99515.91;;;38.04;23.53
71149;BME280;59072;42.144;25.200;2022-08-19T11:46:08;99515.31;;;37.89;23.97
71149;BME280;59072;42.144;25.200;2022-08-19T11:48:36;99509.94;;;37.75;25.99
71149;BME280;59072;42.144;25.200;2022-08-19T11:51:08;99504.75;;;38.04;23.58
71149;BME280;59072;42.144;25.200;2022-08-19T11:53:34;99488.56;;;38.26;23.41
71149;BME280;59072;42.144;25.200;2022-08-19T11:56:00;99490.47;;;37.75;23.75
71149;BME280;59072;42.144;25.200;2022-08-19T11:58:26;99489.22;;;38.34;23.44
71149;BME280;59072;42.144;25.200;2022-08-19T12:00:52;99493.69;;;38.55;23.23
71149;BME280;59072;42.144;25.200;2022-08-19T12:03:18;99488.69;;;38.19;23.99
71149;BME280;59072;42.144;25.200;2022-08-19T12:05:45;99496.25;;;37.53;24.87
71149;BME280;59072;42.144;25.200;2022-08-19T12:08:11;99477.22;;;37.21;25.13
71149;BME280;59072;42.144;25.200;2022-08-19T12:10:38;99484.69;;;37.62;24.08
71149;BME280;59072;42.144;25.200;2022-08-19T12:13:05;99477.97;;;38.17;24.60
71149;BME280;59072;42.144;25.200;2022-08-19T12:15:38;99472.75;;;38.19;23.83
71149;BME280;59072;42.144;25.200;2022-08-19T12:18:06;99469.25;;;38.39;23.44
71149;BME280;59072;42.144;25.200;2022-08-19T12:20:38;99480.38;;;38.66;24.17
71149;BME280;59072;42.144;25.200;2022-08-19T12:23:05;99472.75;;;38.19;23.28
71149;BME280;59072;42.144;25.200;2022-08-19T12:25:31;99466.88;;;38.14;23.28
71149;BME280;59072;42.144;25.200;2022-08-19T12:27:57;99460.63;;;38.57;23.57
71149;BME280;59072;42.144;25.200;2022-08-19T12:30:23;99455.16;;;38.73;23.91
71149;BME280;59072;42.144;25.200;2022-08-19T12:32:48;99457.28;;;39.49;22.85
71149;BME280;59072;42.144;25.200;2022-08-19T12:35:16;99466.47;;;39.86;21.81
71149;BME280;59072;42.144;25.200;2022-08-19T12:37:42;99455.34;;;39.66;22.75
71149;BME280;59072;42.144;25.200;2022-08-19T12:40:10;99463.94;;;39.55;22.34
71149;BME280;59072;42.144;25.200;2022-08-19T12:42:38;99465.91;;;38.95;22.81
71149;BME280;59072;42.144;25.200;2022-08-19T12:45:07;99463.56;;;38.46;24.14
71149;BME280;59072;42.144;25.200;2022-08-19T12:47:32;99466.44;;;39.10;23.20
71149;BME280;59072;42.144;25.200;2022-08-19T12:49:58;99444.50;;;38.88;23.71
71149;BME280;59072;42.144;25.200;2022-08-19T12:52:25;99457.56;;;38.71;23.03
71149;BME280;59072;42.144;25.200;2022-08-19T12:54:53;99439.44;;;38.12;23.96
71149;BME280;59072;42.144;25.200;2022-08-19T12:57:19;99460.19;;;38.58;23.62
71149;BME280;59072;42.144;25.200;2022-08-19T12:59:45;99459.63;;;39.11;22.40
71149;BME280;59072;42.144;25.200;2022-08-19T13:02:10;99459.06;;;39.60;22.35
71149;BME280;59072;42.144;25.200;2022-08-19T13:04:36;99445.19;;;40.09;20.92
71149;BME280;59072;42.144;25.200;2022-08-19T13:07:06;99446.44;;;39.91;21.91
71149;BME280;59072;42.144;25.200;2022-08-19T13:09:31;99441.47;;;39.63;22.44
71149;BME280;59072;42.144;25.200;2022-08-19T13:11:57;99451.75;;;39.66;22.06